createdAt,value
2023-11-18T00:01:14.954Z,79.71
2023-11-18T00:04:21.641Z,80.60
2023-11-18T00:07:25.425Z,80.27
2023-11-18T00:10:30.703Z,80.48
2023-11-18T00:13:34.713Z,79.96
2023-11-18T00:16:38.482Z,80.47
2023-11-18T00:19:43.168Z,80.02
2023-11-18T00:22:46.702Z,80.40
2023-11-18T00:25:53.813Z,80.67
2023-11-18T00:28:57.346Z,80.50
2023-11-18T00:32:01.307Z,80.40
2023-11-18T00:35:05.780Z,80.98
2023-11-18T00:38:09.837Z,80.40
2023-11-18T00:41:14.939Z,80.41
2023-11-18T00:44:19.210Z,80.75
2023-11-18T00:47:24.191Z,79.97
2023-11-18T00:50:28.047Z,80.43
2023-11-18T00:53:31.589Z,80.86
2023-11-18T00:56:37.003Z,80.92
2023-11-18T00:59:45.779Z,80.44
2023-11-18T01:02:51.100Z,80.63
2023-11-18T01:05:55.559Z,80.15
2023-11-18T01:08:59.805Z,80.10
2023-11-18T01:12:08.861Z,80.74
2023-11-18T01:15:13.789Z,80.81
2023-11-18T01:18:18.848Z,80.65
2023-11-18T01:21:24.110Z,80.53
2023-11-18T01:24:27.721Z,80.37
2023-11-18T01:27:34.386Z,80.96
2023-11-18T01:30:38.219Z,80.57
2023-11-18T01:33:42.934Z,80.82
2023-11-18T01:36:46.420Z,80.58
2023-11-18T01:39:51.521Z,80.71
2023-11-18T01:42:57.996Z,80.29
2023-11-18T01:46:08.442Z,80.10
2023-11-18T01:49:12.064Z,80.19
2023-11-18T01:52:16.804Z,80.53
2023-11-18T01:55:20.389Z,80.07
2023-11-18T01:58:27.010Z,80.23
2023-11-18T02:01:32.553Z,80.62
2023-11-18T02:04:36.580Z,80.53
2023-11-18T02:07:40.544Z,80.52
2023-11-18T02:11:03.956Z,81.63
2023-11-18T02:14:17.341Z,80.70
2023-11-18T02:17:25.499Z,81.22
2023-11-18T02:20:31.085Z,80.19
2023-11-18T02:23:35.180Z,80.13
2023-11-18T02:26:40.146Z,80.37
2023-11-18T02:29:49.935Z,80.69
2023-11-18T02:33:03.941Z,80.40
2023-11-18T02:36:17.326Z,80.28
2023-11-18T02:39:30.080Z,80.86
2023-11-18T02:42:38.879Z,80.29
2023-11-18T02:45:44.796Z,80.98
2023-11-18T02:48:48.696Z,80.84
2023-11-18T02:51:52.198Z,80.65
2023-11-18T02:54:56.018Z,80.35
2023-11-18T02:58:02.130Z,80.42
2023-11-18T03:01:10.886Z,80.51
2023-11-18T03:04:16.159Z,80.88
2023-11-18T03:07:20.019Z,80.58
2023-11-18T03:10:23.794Z,81.13
2023-11-18T03:13:29.395Z,81.10
2023-11-18T03:16:33.207Z,80.81
2023-11-18T03:19:38.193Z,80.47
2023-11-18T03:22:41.854Z,80.69
2023-11-18T03:25:47.739Z,80.95
2023-11-18T03:28:52.710Z,80.90
2023-11-18T03:31:56.886Z,80.40
2023-11-18T03:35:01.133Z,80.10
2023-11-18T03:38:05.688Z,80.09
2023-11-18T03:41:10.188Z,80.56
2023-11-18T03:44:15.811Z,80.80
2023-11-18T03:47:19.372Z,80.46
2023-11-18T03:50:23.142Z,80.91
2023-11-18T03:53:26.877Z,81.04
2023-11-18T03:56:30.968Z,80.66
2023-11-18T03:59:36.051Z,80.73
2023-11-18T04:02:41.293Z,80.54
2023-11-18T04:05:44.978Z,80.64
2023-11-18T04:08:48.864Z,81.10
2023-11-18T04:11:53.299Z,80.74
2023-11-18T04:14:58.483Z,80.63
2023-11-18T04:18:02.067Z,81.52
2023-11-18T04:21:07.774Z,81.05
2023-11-18T04:24:11.747Z,81.02
2023-11-18T04:27:15.582Z,80.95
2023-11-18T04:30:21.911Z,80.66
2023-11-18T04:33:26.669Z,80.61
2023-11-18T04:36:30.204Z,81.69
2023-11-18T04:39:34.693Z,81.63
2023-11-18T04:42:39.963Z,81.52
2023-11-18T04:45:45.435Z,81.49
2023-11-18T04:48:49.492Z,81.47
2023-11-18T04:51:53.485Z,80.63
2023-11-18T04:54:57.199Z,80.98
2023-11-18T04:58:01.013Z,81.46
2023-11-18T05:01:06.803Z,81.41
2023-11-18T05:04:10.713Z,80.82
2023-11-18T05:07:15.384Z,80.87
2023-11-18T05:10:19.847Z,81.12
2023-11-18T05:13:23.573Z,80.83
2023-11-18T05:16:28.855Z,80.60
2023-11-18T05:19:32.980Z,80.56
2023-11-18T05:22:37.742Z,80.70
2023-11-18T05:25:45.430Z,81.45
2023-11-18T05:28:50.070Z,81.44
2023-11-18T05:31:55.807Z,81.09
2023-11-18T05:34:59.606Z,81.17
2023-11-18T05:38:04.124Z,80.65
2023-11-18T05:41:17.670Z,81.04
2023-11-18T05:44:22.820Z,80.90
2023-11-18T05:47:28.485Z,81.77
2023-11-18T05:50:32.530Z,81.66
2023-11-18T05:53:37.235Z,80.79
2023-11-18T05:56:40.730Z,80.80
2023-11-18T05:59:44.849Z,81.14
2023-11-18T06:02:50.005Z,81.18
2023-11-18T06:05:55.365Z,81.50
2023-11-18T06:09:05.730Z,81.01
2023-11-18T06:12:10.070Z,81.64
2023-11-18T06:15:15.685Z,81.03
2023-11-18T06:18:21.339Z,80.79
2023-11-18T06:21:29.967Z,80.47
2023-11-18T06:24:33.868Z,81.01
2023-11-18T06:27:37.393Z,80.99
2023-11-18T06:30:41.198Z,80.72
2023-11-18T06:33:48.690Z,80.72
2023-11-18T06:36:52.962Z,80.80
2023-11-18T06:39:56.680Z,81.16
2023-11-18T06:43:03.390Z,81.41
2023-11-18T06:46:06.976Z,81.02
2023-11-18T06:49:16.617Z,80.80
2023-11-18T06:52:20.230Z,80.48
2023-11-18T06:55:24.050Z,80.13
2023-11-18T06:58:28.029Z,80.98
2023-11-18T07:01:32.313Z,80.33
2023-11-18T07:04:39.725Z,80.42
2023-11-18T07:07:44.472Z,80.49
2023-11-18T07:10:49.784Z,80.47
2023-11-18T07:13:57.498Z,80.42
2023-11-18T07:17:01.402Z,80.12
2023-11-18T07:20:08.278Z,80.33
2023-11-18T07:23:11.837Z,80.47
2023-11-18T07:26:16.166Z,80.86
2023-11-18T07:29:20.205Z,80.98
2023-11-18T07:32:23.990Z,80.97
2023-11-18T07:35:28.893Z,80.50
2023-11-18T07:38:33.325Z,80.77
2023-11-18T07:41:37.104Z,80.23
2023-11-18T07:44:41.172Z,80.90
2023-11-18T07:47:44.763Z,80.83
2023-11-18T07:50:50.233Z,80.45
2023-11-18T07:53:54.870Z,80.56
2023-11-18T07:56:59.369Z,80.69
2023-11-18T08:00:06.842Z,80.69
2023-11-18T08:03:17.265Z,80.86
2023-11-18T08:06:23.412Z,80.42
2023-11-18T08:09:27.557Z,80.80
2023-11-18T08:12:31.062Z,80.42
2023-11-18T08:15:35.563Z,80.99
2023-11-18T08:18:39.130Z,80.87
2023-11-18T08:21:44.243Z,80.98
2023-11-18T08:24:50.236Z,80.50
2023-11-18T08:27:54.408Z,80.53
2023-11-18T08:30:57.952Z,80.70
2023-11-18T08:34:01.649Z,80.52
2023-11-18T08:37:06.634Z,79.93
2023-11-18T08:40:15.842Z,80.40
2023-11-18T08:43:19.416Z,80.17
2023-11-18T08:46:23.190Z,80.17
2023-11-18T08:49:26.810Z,80.46
2023-11-18T08:52:31.973Z,79.87
2023-11-18T08:55:43.849Z,79.69
2023-11-18T08:58:50.553Z,79.83
2023-11-18T09:01:56.953Z,80.29
2023-11-18T09:05:01.170Z,80.31
2023-11-18T09:08:07.315Z,79.42
2023-11-18T09:11:16.031Z,79.69
2023-11-18T09:14:20.741Z,79.50
2023-11-18T09:17:24.714Z,79.29
2023-11-18T09:20:28.308Z,79.22
2023-11-18T09:23:35.596Z,78.77
2023-11-18T09:26:39.068Z,78.84
2023-11-18T09:29:42.784Z,78.64
2023-11-18T09:32:48.946Z,79.04
2023-11-18T09:35:53.317Z,78.79
2023-11-18T09:38:58.327Z,78.97
2023-11-18T09:42:03.785Z,79.64
2023-11-18T09:45:14.855Z,78.53
2023-11-18T09:48:26.326Z,79.05
2023-11-18T09:51:40.109Z,78.87
2023-11-18T09:54:57.589Z,77.91
2023-11-18T09:58:14.259Z,77.79
2023-11-18T10:01:22.578Z,78.61
2023-11-18T10:04:28.904Z,78.68
2023-11-18T10:07:37.384Z,77.26
2023-11-18T10:10:46.793Z,77.49
2023-11-18T10:13:51.044Z,77.35
2023-11-18T10:16:55.291Z,77.77
2023-11-18T10:20:01.543Z,77.26
2023-11-18T10:23:11.605Z,77.70
2023-11-18T10:26:17.062Z,77.48
2023-11-18T10:29:20.777Z,77.40
2023-11-18T10:32:28.556Z,77.31
2023-11-18T10:35:33.200Z,77.75
2023-11-18T10:38:44.798Z,78.24
2023-11-18T10:41:50.480Z,77.75
2023-11-18T10:44:58.986Z,78.29
2023-11-18T10:48:03.157Z,78.42
2023-11-18T10:51:08.429Z,78.19
2023-11-18T10:54:18.309Z,77.75
2023-11-18T10:57:25.318Z,77.74
2023-11-18T11:00:34.778Z,77.92
2023-11-18T11:03:56.828Z,78.30
2023-11-18T11:07:02.343Z,78.47
2023-11-18T11:10:07.160Z,78.13
2023-11-18T11:13:13.528Z,78.21
2023-11-18T11:16:21.646Z,78.58
2023-11-18T11:19:38.821Z,78.44
2023-11-18T11:23:09.487Z,78.05
2023-11-18T11:26:32.161Z,78.08
2023-11-18T11:29:48.186Z,78.33
2023-11-18T11:32:55.116Z,77.61
2023-11-18T11:36:05.042Z,77.88
2023-11-18T11:39:18.986Z,77.73
2023-11-18T11:42:26.284Z,78.39
2023-11-18T11:45:31.691Z,78.01
2023-11-18T11:48:37.413Z,78.00
2023-11-18T11:51:51.130Z,78.24
2023-11-18T11:55:07.777Z,77.51
2023-11-18T11:58:29.380Z,77.67
2023-11-18T12:01:39.287Z,78.22
2023-11-18T12:04:43.121Z,78.28
2023-11-18T12:07:47.640Z,77.90
2023-11-18T12:10:57.208Z,78.16
2023-11-18T12:14:14.211Z,77.94
2023-11-18T12:17:23.475Z,77.64
2023-11-18T12:20:45.695Z,77.61
2023-11-18T12:24:19.785Z,78.32
2023-11-18T12:27:52.617Z,78.05
2023-11-18T12:31:06.700Z,77.75
2023-11-18T12:34:13.622Z,77.96
2023-11-18T12:38:04.752Z,78.29
2023-11-18T12:41:12.731Z,78.15
2023-11-18T12:44:33.790Z,78.22
2023-11-18T12:47:43.797Z,78.17
2023-11-18T12:50:48.940Z,77.74
2023-11-18T12:53:54.809Z,77.29
2023-11-18T12:56:58.764Z,77.88
2023-11-18T13:00:02.779Z,77.84
2023-11-18T13:03:11.468Z,78.10
2023-11-18T13:06:17.347Z,78.20
2023-11-18T13:09:27.447Z,77.77
2023-11-18T13:12:31.810Z,78.28
2023-11-18T13:15:35.481Z,77.79
2023-11-18T13:18:50.363Z,77.86
2023-11-18T13:22:01.467Z,78.61
2023-11-18T13:25:06.337Z,77.85
2023-11-18T13:28:12.096Z,78.35
2023-11-18T13:31:17.668Z,77.97
2023-11-18T13:34:22.685Z,78.64
2023-11-18T13:37:28.139Z,78.66
2023-11-18T13:40:45.611Z,78.14
2023-11-18T13:43:49.480Z,78.37
2023-11-18T13:46:53.108Z,78.59
2023-11-18T13:49:59.552Z,78.05
2023-11-18T13:53:06.710Z,78.29
2023-11-18T13:56:11.210Z,78.57
2023-11-18T13:59:15.460Z,78.20
2023-11-18T14:02:19.960Z,78.80
2023-11-18T14:05:25.446Z,78.62
2023-11-18T14:08:30.815Z,78.34
2023-11-18T14:11:35.617Z,78.03
2023-11-18T14:14:39.762Z,78.43
2023-11-18T14:17:46.111Z,78.32
2023-11-18T14:20:51.453Z,78.47
2023-11-18T14:24:01.144Z,78.76
2023-11-18T14:27:06.147Z,78.52
2023-11-18T14:30:11.556Z,78.47
2023-11-18T14:33:15.408Z,78.54
2023-11-18T14:36:20.101Z,78.10
2023-11-18T14:39:26.824Z,78.56
2023-11-18T14:42:30.312Z,78.14
2023-11-18T14:45:34.056Z,77.98
2023-11-18T14:48:37.504Z,78.48
2023-11-18T14:51:42.224Z,78.02
2023-11-18T14:54:47.572Z,78.12
2023-11-18T14:57:51.641Z,78.21
2023-11-18T15:00:58.021Z,77.97
2023-11-18T15:04:05.401Z,78.08
2023-11-18T15:07:09.416Z,78.27
2023-11-18T15:10:15.321Z,78.75
2023-11-18T15:13:19.383Z,77.83
2023-11-18T15:16:23.885Z,78.39
2023-11-18T15:19:28.908Z,78.70
2023-11-18T15:22:32.689Z,78.39
2023-11-18T15:25:37.691Z,78.73
2023-11-18T15:28:42.080Z,78.42
2023-11-18T15:31:46.493Z,78.47
2023-11-18T15:34:50.239Z,78.10
2023-11-18T15:37:53.982Z,78.67
2023-11-18T15:40:59.732Z,78.61
2023-11-18T15:44:04.607Z,78.71
2023-11-18T15:47:10.920Z,78.77
2023-11-18T15:50:17.470Z,78.65
2023-11-18T15:53:22.546Z,78.85
2023-11-18T15:56:27.459Z,78.37
2023-11-18T15:59:31.955Z,78.31
2023-11-18T16:02:35.512Z,78.82
2023-11-18T16:05:39.448Z,78.34
2023-11-18T16:08:44.290Z,78.63
2023-11-18T16:11:50.705Z,78.55
2023-11-18T16:14:54.510Z,78.45
2023-11-18T16:18:01.731Z,78.54
2023-11-18T16:21:06.549Z,78.76
2023-11-18T16:24:11.181Z,78.70
2023-11-18T16:27:16.979Z,78.67
2023-11-18T16:30:25.834Z,78.83
2023-11-18T16:33:31.101Z,78.66
2023-11-18T16:36:35.037Z,78.39
2023-11-18T16:39:38.523Z,78.41
2023-11-18T16:42:43.834Z,78.82
2023-11-18T16:45:49.369Z,78.20
2023-11-18T16:48:55.490Z,78.44
2023-11-18T16:52:00.771Z,78.33
2023-11-18T16:55:07.543Z,78.19
2023-11-18T16:58:12.916Z,78.63
2023-11-18T17:01:18.035Z,78.53
2023-11-18T17:04:21.668Z,78.60
2023-11-18T17:07:27.733Z,78.83
2023-11-18T17:10:31.560Z,78.49
2023-11-18T17:13:37.498Z,78.49
2023-11-18T17:16:42.089Z,78.36
2023-11-18T17:19:45.971Z,78.42
2023-11-18T17:22:50.159Z,78.38
2023-11-18T17:25:56.685Z,78.50
2023-11-18T17:29:01.907Z,78.70
2023-11-18T17:32:06.890Z,78.34
2023-11-18T17:35:14.315Z,78.42
2023-11-18T17:38:18.255Z,78.36
2023-11-18T17:41:22.964Z,78.61
2023-11-18T17:44:28.852Z,78.04
2023-11-18T17:47:35.758Z,78.34
2023-11-18T17:50:39.678Z,78.54
2023-11-18T17:53:43.591Z,77.97
2023-11-18T17:56:47.599Z,78.24
2023-11-18T17:59:54.087Z,78.46
2023-11-18T18:02:58.438Z,78.23
2023-11-18T18:06:02.367Z,78.11
2023-11-18T18:09:16.933Z,78.04
2023-11-18T18:12:20.395Z,77.96
2023-11-18T18:15:27.564Z,78.25
2023-11-18T18:18:31.219Z,77.87
2023-11-18T18:21:34.926Z,78.06
2023-11-18T18:24:38.333Z,77.71
2023-11-18T18:27:42.376Z,78.19
2023-11-18T18:30:47.297Z,77.95
2023-11-18T18:33:52.264Z,77.47
2023-11-18T18:36:55.866Z,77.80
2023-11-18T18:40:00.161Z,77.67
2023-11-18T18:43:04.317Z,78.26
2023-11-18T18:46:09.716Z,78.08
2023-11-18T18:49:13.334Z,77.69
2023-11-18T18:52:17.112Z,77.46
2023-11-18T18:55:20.644Z,77.59
2023-11-18T18:58:24.487Z,77.26
2023-11-18T19:01:29.655Z,77.67
2023-11-18T19:07:37.451Z,77.44
2023-11-18T19:10:41.170Z,77.34
2023-11-18T19:13:44.695Z,77.71
2023-11-18T19:16:49.907Z,77.64
2023-11-18T19:19:53.476Z,77.25
2023-11-18T19:22:57.291Z,77.73
2023-11-18T19:26:00.778Z,77.32
2023-11-18T19:29:07.073Z,77.50
2023-11-18T19:32:12.110Z,77.67
2023-11-18T19:35:16.750Z,77.13
2023-11-18T19:38:20.400Z,77.56
2023-11-18T19:41:24.293Z,77.49
2023-11-18T19:44:27.866Z,77.68
2023-11-18T19:47:33.323Z,78.12
2023-11-18T19:50:36.956Z,77.49
2023-11-18T19:53:40.870Z,77.44
2023-11-18T19:56:44.740Z,77.67
2023-11-18T19:59:50.132Z,77.46
2023-11-18T20:02:55.267Z,77.38
2023-11-18T20:05:59.173Z,77.74
2023-11-18T20:09:03.994Z,77.48
2023-11-18T20:12:09.226Z,77.10
2023-11-18T20:15:13.400Z,77.28
2023-11-18T20:18:19.923Z,76.95
2023-11-18T20:21:23.769Z,77.03
2023-11-18T20:24:27.574Z,77.08
2023-11-18T20:27:31.032Z,77.51
2023-11-18T20:30:34.891Z,76.95
2023-11-18T20:33:43.228Z,77.00
2023-11-18T20:36:47.847Z,76.98
2023-11-18T20:39:51.952Z,76.59
2023-11-18T20:42:57.764Z,76.87
2023-11-18T20:46:01.179Z,76.64
2023-11-18T20:49:06.520Z,76.62
2023-11-18T20:52:10.726Z,77.08
2023-11-18T20:55:14.967Z,76.40
2023-11-18T20:58:18.516Z,76.79
2023-11-18T21:01:22.298Z,77.03
2023-11-18T21:04:28.141Z,76.96
2023-11-18T21:07:32.135Z,76.45
2023-11-18T21:10:36.450Z,76.37
2023-11-18T21:13:40.687Z,76.46
2023-11-18T21:16:47.010Z,76.27
2023-11-18T21:19:53.475Z,76.59
2023-11-18T21:22:57.319Z,76.61
2023-11-18T21:26:01.426Z,76.24
2023-11-18T21:29:05.496Z,76.78
2023-11-18T21:32:09.449Z,76.45
2023-11-18T21:35:16.241Z,76.31
2023-11-18T21:38:21.155Z,76.06
2023-11-18T21:41:25.085Z,76.44
2023-11-18T21:44:29.093Z,76.08
2023-11-18T21:47:33.425Z,76.29
2023-11-18T21:50:41.594Z,76.33
2023-11-18T21:53:45.354Z,76.37
2023-11-18T21:56:49.355Z,76.14
2023-11-18T21:59:53.571Z,76.28
2023-11-18T22:02:58.206Z,75.93
2023-11-18T22:06:03.331Z,76.03
2023-11-18T22:09:08.502Z,76.08
2023-11-18T22:12:11.983Z,76.36
2023-11-18T22:15:18.041Z,75.78
2023-11-18T22:18:23.770Z,75.77
2023-11-18T22:21:29.379Z,75.79
2023-11-18T22:24:32.970Z,75.48
2023-11-18T22:27:41.043Z,76.04
2023-11-18T22:30:46.496Z,75.72
2023-11-18T22:33:50.518Z,75.59
2023-11-18T22:36:56.524Z,75.63
2023-11-18T22:40:00.476Z,75.71
2023-11-18T22:43:04.193Z,75.75
2023-11-18T22:46:12.039Z,75.42
2023-11-18T22:49:15.893Z,75.42
2023-11-18T22:52:22.154Z,75.48
2023-11-18T22:55:26.342Z,75.67
2023-11-18T22:58:30.237Z,75.37
2023-11-18T23:01:37.832Z,75.74
2023-11-18T23:04:41.635Z,75.31
2023-11-18T23:07:47.408Z,75.51
2023-11-18T23:10:52.345Z,75.33
2023-11-18T23:13:56.458Z,75.36
2023-11-18T23:17:08.253Z,75.32
2023-11-18T23:20:13.444Z,75.44
2023-11-18T23:23:19.435Z,75.46
2023-11-18T23:26:23.081Z,75.57
2023-11-18T23:29:27.032Z,75.83
2023-11-18T23:32:31.561Z,75.94
2023-11-18T23:35:35.438Z,75.48
2023-11-18T23:38:40.558Z,75.68
2023-11-18T23:41:44.588Z,75.58
2023-11-18T23:44:48.287Z,75.54
2023-11-18T23:47:52.967Z,75.19
2023-11-18T23:50:56.560Z,75.83
2023-11-18T23:54:01.748Z,75.96
2023-11-18T23:57:06.104Z,75.98
